createdAt,value
2024-03-14T00:00:07.563Z,96841.41
2024-03-14T00:02:34.043Z,96834.59
2024-03-14T00:05:00.648Z,96832.00
2024-03-14T00:07:27.469Z,96832.72
2024-03-14T00:09:53.956Z,96825.91
2024-03-14T00:12:20.361Z,96821.56
2024-03-14T00:14:51.505Z,96824.03
2024-03-14T00:17:24.097Z,96822.31
2024-03-14T00:19:52.388Z,96829.09
2024-03-14T00:22:19.162Z,96826.53
2024-03-14T00:24:46.767Z,96823.13
2024-03-14T00:27:14.614Z,96827.44
2024-03-14T00:29:43.507Z,96822.38
2024-03-14T00:32:10.116Z,96824.09
2024-03-14T00:34:37.251Z,96819.84
2024-03-14T00:37:04.026Z,96827.50
2024-03-14T00:39:33.079Z,96824.97
2024-03-14T00:41:59.662Z,96821.56
2024-03-14T00:44:26.288Z,96809.59
2024-03-14T00:46:52.701Z,96806.28
2024-03-14T00:49:19.175Z,96807.03
2024-03-14T00:51:45.798Z,96804.59
2024-03-14T00:54:12.236Z,96805.38
2024-03-14T00:56:38.691Z,96802.66
2024-03-14T00:59:05.091Z,96800.91
2024-03-14T01:01:31.498Z,96796.63
2024-03-14T01:03:58.015Z,96798.31
2024-03-14T01:06:26.250Z,96793.22
2024-03-14T01:08:54.371Z,96791.53
2024-03-14T01:11:20.850Z,96789.81
2024-03-14T01:13:47.482Z,96789.00
2024-03-14T01:16:14.886Z,96789.78
2024-03-14T01:18:41.579Z,96784.63
2024-03-14T01:21:09.535Z,96781.22
2024-03-14T01:23:37.981Z,96786.31
2024-03-14T01:26:05.114Z,96784.69
2024-03-14T01:28:31.549Z,96772.75
2024-03-14T01:31:00.117Z,96774.50
2024-03-14T01:33:26.978Z,96775.28
2024-03-14T01:35:59.691Z,96777.91
2024-03-14T01:38:27.788Z,96775.28
2024-03-14T01:40:54.209Z,96774.44
2024-03-14T01:43:20.657Z,96772.72
2024-03-14T01:45:49.952Z,96775.22
2024-03-14T01:48:16.450Z,96771.81
2024-03-14T01:50:43.697Z,96776.09
2024-03-14T01:53:11.278Z,96770.94
2024-03-14T01:55:38.923Z,96771.00
2024-03-14T01:58:05.985Z,96768.44
2024-03-14T02:00:40.366Z,96767.63
2024-03-14T02:03:07.841Z,96770.97
2024-03-14T02:05:47.107Z,96765.00
2024-03-14T02:08:13.776Z,96759.06
2024-03-14T02:13:11.707Z,96755.66
2024-03-14T02:15:39.678Z,96753.91
2024-03-14T02:18:06.841Z,96753.91
2024-03-14T02:20:33.362Z,96741.19
2024-03-14T02:22:59.876Z,96744.59
2024-03-14T02:25:26.792Z,96741.16
2024-03-14T02:27:53.224Z,96740.31
2024-03-14T02:30:20.100Z,96738.56
2024-03-14T02:32:46.912Z,96746.16
2024-03-14T02:35:13.544Z,96741.06
2024-03-14T02:37:40.280Z,96740.97
2024-03-14T02:40:07.810Z,96739.34
2024-03-14T02:42:35.130Z,96741.81
2024-03-14T02:45:01.898Z,96743.63
2024-03-14T02:47:28.908Z,96737.66
2024-03-14T02:49:58.231Z,96729.19
2024-03-14T02:52:24.801Z,96730.03
2024-03-14T02:54:51.788Z,96732.53
2024-03-14T02:57:18.351Z,96731.59
2024-03-14T02:59:44.815Z,96735.84
2024-03-14T03:02:12.630Z,96734.19
2024-03-14T03:04:39.847Z,96737.66
2024-03-14T03:07:07.171Z,96740.13
2024-03-14T03:09:37.129Z,96732.41
2024-03-14T03:12:04.439Z,96735.75
2024-03-14T03:14:31.502Z,96733.97
2024-03-14T03:16:57.945Z,96735.69
2024-03-14T03:19:24.337Z,96726.34
2024-03-14T03:21:50.721Z,96725.44
2024-03-14T03:24:17.145Z,96719.44
2024-03-14T03:26:43.649Z,96716.94
2024-03-14T03:29:13.423Z,96719.47
2024-03-14T03:31:39.882Z,96726.25
2024-03-14T03:34:08.264Z,96726.34
2024-03-14T03:36:34.990Z,96722.84
2024-03-14T03:39:01.646Z,96724.66
2024-03-14T03:41:31.230Z,96724.69
2024-03-14T03:43:58.204Z,96729.75
2024-03-14T03:46:25.041Z,96731.44
2024-03-14T03:48:52.634Z,96727.28
2024-03-14T03:51:19.769Z,96725.56
2024-03-14T03:53:47.277Z,96721.31
2024-03-14T03:56:15.054Z,96717.09
2024-03-14T03:58:43.931Z,96725.59
2024-03-14T04:01:13.681Z,96728.97
2024-03-14T04:03:43.225Z,96726.47
2024-03-14T04:06:16.647Z,96728.09
2024-03-14T04:08:46.676Z,96723.84
2024-03-14T04:11:13.831Z,96718.69
2024-03-14T04:13:40.417Z,96718.66
2024-03-14T04:16:06.980Z,96715.28
2024-03-14T04:18:34.036Z,96708.44
2024-03-14T04:21:00.641Z,96710.22
2024-03-14T04:23:27.158Z,96714.44
2024-03-14T04:25:57.356Z,96701.75
2024-03-14T04:28:26.988Z,96706.84
2024-03-14T04:30:53.549Z,96706.91
2024-03-14T04:33:20.430Z,96705.16
2024-03-14T04:35:50.599Z,96699.22
2024-03-14T04:38:19.589Z,96711.88
2024-03-14T04:40:46.039Z,96705.97
2024-03-14T04:43:12.494Z,96702.56
2024-03-14T04:45:41.919Z,96711.09
2024-03-14T04:48:08.550Z,96709.41
2024-03-14T04:50:35.712Z,96716.19
2024-03-14T04:53:02.166Z,96720.47
2024-03-14T04:55:28.681Z,96712.78
2024-03-14T04:57:55.166Z,96713.66
2024-03-14T05:00:22.285Z,96714.56
2024-03-14T05:02:50.786Z,96717.97
2024-03-14T05:05:17.894Z,96720.50
2024-03-14T05:07:45.481Z,96719.66
2024-03-14T05:10:15.334Z,96718.78
2024-03-14T05:12:43.760Z,96711.97
2024-03-14T05:15:10.386Z,96720.44
2024-03-14T05:17:37.564Z,96725.56
2024-03-14T05:20:07.521Z,96728.94
2024-03-14T05:22:34.044Z,96726.25
2024-03-14T05:25:05.286Z,96729.66
2024-03-14T05:27:31.859Z,96736.41
2024-03-14T05:29:58.427Z,96739.81
2024-03-14T05:32:29.452Z,96731.38
2024-03-14T05:34:57.424Z,96738.25
2024-03-14T05:37:28.387Z,96739.88
2024-03-14T05:39:55.254Z,96741.56
2024-03-14T05:42:21.744Z,96733.97
2024-03-14T05:44:49.022Z,96743.25
2024-03-14T05:47:16.939Z,96742.47
2024-03-14T05:49:43.441Z,96738.25
2024-03-14T05:52:11.274Z,96734.88
2024-03-14T05:54:37.748Z,96740.84
2024-03-14T05:57:04.581Z,96734.91
2024-03-14T05:59:31.770Z,96739.22
2024-03-14T06:01:58.303Z,96740.09
2024-03-14T06:04:24.838Z,96742.69
2024-03-14T06:06:51.299Z,96741.81
2024-03-14T06:09:18.723Z,96745.28
2024-03-14T06:11:45.285Z,96748.72
2024-03-14T06:14:11.652Z,96748.75
2024-03-14T06:16:38.371Z,96754.78
2024-03-14T06:19:04.885Z,96749.69
2024-03-14T06:21:31.466Z,96749.81
2024-03-14T06:23:57.953Z,96752.38
2024-03-14T06:26:24.529Z,96748.16
2024-03-14T06:28:55.365Z,96749.91
2024-03-14T06:31:21.780Z,96759.31
2024-03-14T06:33:48.190Z,96754.25
2024-03-14T06:36:14.664Z,96754.31
2024-03-14T06:38:41.249Z,96755.16
2024-03-14T06:41:08.371Z,96756.91
2024-03-14T06:43:34.805Z,96757.75
2024-03-14T06:46:01.187Z,96756.09
2024-03-14T06:48:27.763Z,96745.97
2024-03-14T06:50:54.328Z,96748.53
2024-03-14T06:53:20.849Z,96749.47
2024-03-14T06:55:48.032Z,96748.72
2024-03-14T06:58:17.778Z,96745.31
2024-03-14T07:00:44.426Z,96744.53
2024-03-14T07:03:12.272Z,96753.16
2024-03-14T07:05:38.898Z,96749.00
2024-03-14T07:08:06.617Z,96744.75
2024-03-14T07:10:33.400Z,96742.22
2024-03-14T07:12:59.818Z,96744.00
2024-03-14T07:15:26.540Z,96749.16
2024-03-14T07:17:59.767Z,96749.13
2024-03-14T07:20:34.329Z,96750.88
2024-03-14T07:23:00.868Z,96756.84
2024-03-14T07:25:27.437Z,96756.00
2024-03-14T07:27:54.146Z,96759.47
2024-03-14T07:30:25.712Z,96755.19
2024-03-14T07:32:53.374Z,96759.44
2024-03-14T07:35:20.013Z,96759.50
2024-03-14T07:37:48.488Z,96757.00
2024-03-14T07:40:18.152Z,96758.00
2024-03-14T07:42:45.834Z,96759.75
2024-03-14T07:45:18.667Z,96758.03
2024-03-14T07:47:45.951Z,96764.81
2024-03-14T07:50:12.679Z,96757.94
2024-03-14T07:52:40.148Z,96764.00
2024-03-14T07:55:08.437Z,96764.81
2024-03-14T07:57:37.910Z,96767.44
2024-03-14T08:00:16.193Z,96774.28
2024-03-14T08:02:43.424Z,96772.66
2024-03-14T08:05:10.070Z,96768.50
2024-03-14T08:07:38.766Z,96776.22
2024-03-14T08:10:06.514Z,96778.78
2024-03-14T08:12:33.136Z,96775.41
2024-03-14T08:15:18.207Z,96780.50
2024-03-14T08:17:47.930Z,96782.28
2024-03-14T08:20:17.372Z,96775.53
2024-03-14T08:25:17.175Z,96778.09
2024-03-14T08:27:45.032Z,96783.31
2024-03-14T08:30:12.679Z,96784.09
2024-03-14T08:32:39.875Z,96782.34
2024-03-14T08:35:06.898Z,96791.75
2024-03-14T08:37:33.338Z,96792.66
2024-03-14T08:39:59.999Z,96791.84
2024-03-14T08:42:40.103Z,96785.91
2024-03-14T08:45:12.659Z,96793.63
2024-03-14T08:47:39.968Z,96791.88
2024-03-14T08:50:07.919Z,96787.69
2024-03-14T08:52:34.997Z,96793.75
2024-03-14T08:55:01.607Z,96795.44
2024-03-14T08:57:28.092Z,96793.88
2024-03-14T08:59:55.136Z,96795.59
2024-03-14T09:02:24.376Z,96791.38
2024-03-14T09:04:52.591Z,96786.31
2024-03-14T09:07:19.815Z,96792.34
2024-03-14T09:09:46.234Z,96795.78
2024-03-14T09:12:17.833Z,96790.69
2024-03-14T09:14:44.609Z,96787.34
2024-03-14T09:17:12.791Z,96790.00
2024-03-14T09:19:40.456Z,96795.06
2024-03-14T09:22:07.538Z,96798.50
2024-03-14T09:24:37.857Z,96795.94
2024-03-14T09:27:06.045Z,96794.38
2024-03-14T09:29:33.778Z,96784.19
2024-03-14T09:32:00.512Z,96790.13
2024-03-14T09:34:28.239Z,96787.59
2024-03-14T09:36:56.584Z,96791.84
2024-03-14T09:39:23.211Z,96785.88
2024-03-14T09:41:49.902Z,96791.03
2024-03-14T09:44:19.444Z,96791.03
2024-03-14T09:47:11.717Z,96789.38
2024-03-14T09:49:38.578Z,96776.75
2024-03-14T09:52:06.689Z,96784.44
2024-03-14T09:54:33.724Z,96787.84
2024-03-14T09:57:00.853Z,96788.72
2024-03-14T09:59:28.440Z,96796.41
2024-03-14T10:01:55.174Z,96791.38
2024-03-14T10:04:22.796Z,96792.19
2024-03-14T10:06:49.663Z,96784.53
2024-03-14T10:09:27.573Z,96784.66
2024-03-14T10:12:03.544Z,96782.09
2024-03-14T10:14:33.736Z,96787.25
2024-03-14T10:17:00.534Z,96777.84
2024-03-14T10:19:36.473Z,96780.38
2024-03-14T10:22:05.571Z,96777.84
2024-03-14T10:24:34.599Z,96771.06
2024-03-14T10:27:03.212Z,96773.69
2024-03-14T10:29:34.267Z,96773.69
2024-03-14T10:32:01.561Z,96769.38
2024-03-14T10:34:27.998Z,96768.56
2024-03-14T10:36:55.598Z,96772.06
2024-03-14T10:39:27.704Z,96774.66
2024-03-14T10:41:54.304Z,96766.97
2024-03-14T10:44:22.636Z,96770.41
2024-03-14T10:46:51.311Z,96773.88
2024-03-14T10:49:22.079Z,96768.75
2024-03-14T10:51:55.634Z,96769.72
2024-03-14T10:54:25.063Z,96763.81
2024-03-14T10:56:51.697Z,96763.00
2024-03-14T10:59:21.163Z,96758.78
2024-03-14T11:01:58.103Z,96765.63
2024-03-14T11:04:25.300Z,96757.97
2024-03-14T11:06:53.549Z,96763.97
2024-03-14T11:09:30.941Z,96753.75
2024-03-14T11:12:04.952Z,96757.16
2024-03-14T11:14:37.999Z,96758.16
2024-03-14T11:17:04.803Z,96752.31
2024-03-14T11:19:31.956Z,96746.31
2024-03-14T11:21:59.284Z,96746.38
2024-03-14T11:24:32.946Z,96748.97
2024-03-14T11:27:02.941Z,96748.22
2024-03-14T11:29:34.195Z,96744.00
2024-03-14T11:32:23.500Z,96744.03
2024-03-14T11:34:50.169Z,96733.78
2024-03-14T11:37:17.757Z,96731.22
2024-03-14T11:39:48.869Z,96724.38
2024-03-14T11:42:17.335Z,96727.75
2024-03-14T11:44:46.102Z,96728.53
2024-03-14T11:47:15.348Z,96729.31
2024-03-14T11:49:44.419Z,96720.75
2024-03-14T11:52:12.629Z,96706.25
2024-03-14T11:54:42.461Z,96707.16
2024-03-14T11:57:10.550Z,96716.56
2024-03-14T11:59:43.709Z,96707.13
2024-03-14T12:02:17.504Z,96703.72
2024-03-14T12:04:48.377Z,96699.47
2024-03-14T12:07:14.972Z,96691.69
2024-03-14T12:09:42.380Z,96693.41
2024-03-14T12:12:09.785Z,96690.88
2024-03-14T12:14:36.590Z,96690.88
2024-03-14T12:17:03.248Z,96686.59
2024-03-14T12:19:29.715Z,96685.69
2024-03-14T12:21:56.182Z,96684.78
2024-03-14T12:24:25.581Z,96676.22
2024-03-14T12:26:54.648Z,96668.44
2024-03-14T12:29:27.915Z,96663.28
2024-03-14T12:31:56.545Z,96663.25
2024-03-14T12:34:23.904Z,96657.28
2024-03-14T12:36:53.325Z,96654.41
2024-03-14T12:39:19.741Z,96650.59
2024-03-14T12:41:46.356Z,96651.13
2024-03-14T12:44:13.370Z,96652.13
2024-03-14T12:46:39.965Z,96648.81
2024-03-14T12:49:08.871Z,96650.63
2024-03-14T12:51:35.393Z,96652.50
2024-03-14T12:54:02.333Z,96648.31
2024-03-14T12:56:29.257Z,96645.72
2024-03-14T12:58:57.636Z,96642.31
2024-03-14T13:01:28.776Z,96633.75
2024-03-14T13:03:59.945Z,96636.34
2024-03-14T13:06:29.568Z,96638.88
2024-03-14T13:09:18.293Z,96631.91
2024-03-14T13:12:15.977Z,96629.31
2024-03-14T13:14:43.122Z,96623.31
2024-03-14T13:17:14.570Z,96624.19
2024-03-14T13:19:41.636Z,96620.75
2024-03-14T13:22:12.330Z,96614.78
2024-03-14T13:24:39.135Z,96617.31
2024-03-14T13:27:06.359Z,96607.88
2024-03-14T13:29:32.938Z,96623.22
2024-03-14T13:32:02.058Z,96613.03
2024-03-14T13:34:28.466Z,96607.78
2024-03-14T13:36:55.046Z,96611.03
2024-03-14T13:39:24.477Z,96610.91
2024-03-14T13:41:50.890Z,96611.66
2024-03-14T13:44:17.345Z,96610.63
2024-03-14T13:46:46.066Z,96606.97
2024-03-14T13:49:13.028Z,96598.31
2024-03-14T13:51:40.303Z,96601.75
2024-03-14T13:54:07.735Z,96603.34
2024-03-14T13:56:34.406Z,96594.56
2024-03-14T13:59:03.804Z,96601.75
2024-03-14T14:01:35.231Z,96602.91
2024-03-14T14:04:04.052Z,96603.75
2024-03-14T14:06:31.017Z,96596.03
2024-03-14T14:08:57.931Z,96596.94
2024-03-14T14:11:25.181Z,96597.88
2024-03-14T14:13:51.733Z,96603.13
2024-03-14T14:16:19.618Z,96595.34
2024-03-14T14:18:46.218Z,96596.28
2024-03-14T14:21:12.738Z,96592.72
2024-03-14T14:23:39.198Z,96591.03
2024-03-14T14:26:05.910Z,96584.25
2024-03-14T14:28:32.322Z,96591.13
2024-03-14T14:30:58.870Z,96586.75
2024-03-14T14:33:27.508Z,96582.53
2024-03-14T14:35:55.056Z,96579.84
2024-03-14T14:38:22.081Z,96572.16
2024-03-14T14:40:51.880Z,96572.84
2024-03-14T14:43:18.335Z,96571.06
2024-03-14T14:45:45.091Z,96558.00
2024-03-14T14:48:11.615Z,96564.88
2024-03-14T14:50:38.608Z,96561.34
2024-03-14T14:53:07.938Z,96556.91
2024-03-14T14:55:34.404Z,96556.69
2024-03-14T14:58:03.251Z,96551.59
2024-03-14T15:00:29.841Z,96553.25
2024-03-14T15:02:56.530Z,96547.38
2024-03-14T15:05:23.167Z,96543.94
2024-03-14T15:07:51.404Z,96539.63
2024-03-14T15:10:19.222Z,96537.69
2024-03-14T15:12:53.860Z,96536.06
2024-03-14T15:15:25.190Z,96535.25
2024-03-14T15:17:52.555Z,96530.19
2024-03-14T15:20:22.574Z,96533.69
2024-03-14T15:22:50.166Z,96529.56
2024-03-14T15:25:17.929Z,96534.59
2024-03-14T15:27:46.951Z,96529.69
2024-03-14T15:30:13.621Z,96527.22
2024-03-14T15:32:43.493Z,96527.41
2024-03-14T15:35:12.360Z,96525.78
2024-03-14T15:37:39.899Z,96525.97
2024-03-14T15:40:10.953Z,96525.28
2024-03-14T15:42:37.631Z,96522.88
2024-03-14T15:45:10.253Z,96521.28
2024-03-14T15:47:37.002Z,96520.44
2024-03-14T15:50:05.840Z,96522.19
2024-03-14T15:52:33.190Z,96511.94
2024-03-14T15:54:59.684Z,96504.25
2024-03-14T15:57:26.079Z,96510.13
2024-03-14T15:59:54.494Z,96505.78
2024-03-14T16:02:20.948Z,96509.09
2024-03-14T16:04:47.749Z,96509.94
2024-03-14T16:07:14.285Z,96513.38
2024-03-14T16:09:44.321Z,96510.91
2024-03-14T16:12:11.150Z,96494.50
2024-03-14T16:14:37.736Z,96505.66
2024-03-14T16:17:04.408Z,96498.78
2024-03-14T16:19:31.233Z,96496.28
2024-03-14T16:21:58.210Z,96500.75
2024-03-14T16:24:26.937Z,96493.13
2024-03-14T16:26:54.101Z,96501.88
2024-03-14T16:29:21.561Z,96487.41
2024-03-14T16:31:51.959Z,96492.59
2024-03-14T16:34:18.436Z,96492.66
2024-03-14T16:36:45.973Z,96491.00
2024-03-14T16:39:19.894Z,96500.47
2024-03-14T16:41:50.909Z,96498.84
2024-03-14T16:44:17.482Z,96489.44
2024-03-14T16:46:44.763Z,96494.63
2024-03-14T16:49:12.947Z,96489.53
2024-03-14T16:51:41.194Z,96488.75
2024-03-14T16:54:09.856Z,96487.91
2024-03-14T16:56:37.947Z,96483.69
2024-03-14T16:59:07.062Z,96483.75
2024-03-14T17:01:35.536Z,96478.69
2024-03-14T17:04:02.003Z,96483.00
2024-03-14T17:06:28.415Z,96486.50
2024-03-14T17:08:55.336Z,96483.13
2024-03-14T17:11:24.695Z,96484.00
2024-03-14T17:13:53.166Z,96479.75
2024-03-14T17:16:21.428Z,96480.63
2024-03-14T17:18:48.418Z,96478.94
2024-03-14T17:21:16.830Z,96485.81
2024-03-14T17:23:43.305Z,96484.97
2024-03-14T17:26:09.808Z,96480.72
2024-03-14T17:28:36.769Z,96481.56
2024-03-14T17:31:06.765Z,96474.75
2024-03-14T17:33:36.698Z,96476.44
2024-03-14T17:36:03.634Z,96478.16
2024-03-14T17:38:30.025Z,96482.44
2024-03-14T17:40:56.457Z,96479.88
2024-03-14T17:43:23.581Z,96475.63
2024-03-14T17:45:50.355Z,96479.88
2024-03-14T17:48:16.888Z,96476.50
2024-03-14T17:50:43.396Z,96479.03
2024-03-14T17:53:09.800Z,96477.34
2024-03-14T17:55:37.785Z,96480.75
2024-03-14T17:58:05.336Z,96482.44
2024-03-14T18:00:32.163Z,96479.03
2024-03-14T18:03:00.349Z,96484.13
2024-03-14T18:05:27.432Z,96482.41
2024-03-14T18:07:53.904Z,96476.44
2024-03-14T18:10:21.143Z,96479.00
2024-03-14T18:12:47.991Z,96473.91
2024-03-14T18:15:17.138Z,96472.22
2024-03-14T18:17:44.162Z,96479.03
2024-03-14T18:20:12.016Z,96474.78
2024-03-14T18:22:42.220Z,96471.34
2024-03-14T18:25:11.096Z,96471.34
2024-03-14T18:27:38.537Z,96479.00
2024-03-14T18:30:13.649Z,96477.31
2024-03-14T18:32:44.224Z,96475.59
2024-03-14T18:35:17.303Z,96473.88
2024-03-14T18:37:47.827Z,96472.16
2024-03-14T18:40:19.705Z,96476.44
2024-03-14T18:42:48.220Z,96479.00
2024-03-14T18:45:14.902Z,96473.84
2024-03-14T18:47:41.561Z,96477.28
2024-03-14T18:50:12.376Z,96471.31
2024-03-14T18:52:42.408Z,96473.84
2024-03-14T18:55:10.537Z,96473.84
2024-03-14T18:57:37.368Z,96472.97
2024-03-14T19:00:07.072Z,96485.72
2024-03-14T19:02:34.815Z,96478.91
2024-03-14T19:05:01.203Z,96474.59
2024-03-14T19:07:27.695Z,96480.53
2024-03-14T19:09:54.224Z,96486.47
2024-03-14T19:12:20.700Z,96478.78
2024-03-14T19:14:47.240Z,96486.41
2024-03-14T19:17:19.227Z,96484.69
2024-03-14T19:19:48.316Z,96476.16
2024-03-14T19:22:14.749Z,96481.22
2024-03-14T19:24:41.237Z,96472.63
2024-03-14T19:27:08.306Z,96479.44
2024-03-14T19:29:34.832Z,96471.75
2024-03-14T19:32:01.946Z,96476.84
2024-03-14T19:34:28.413Z,96472.59
2024-03-14T19:36:54.912Z,96470.00
2024-03-14T19:39:22.108Z,96469.13
2024-03-14T19:41:49.492Z,96480.19
2024-03-14T19:44:15.895Z,96479.34
2024-03-14T19:46:45.223Z,96474.19
2024-03-14T19:49:13.939Z,96469.03
2024-03-14T19:51:40.455Z,96477.53
2024-03-14T19:54:06.989Z,96474.19
2024-03-14T19:56:37.141Z,96476.72
2024-03-14T19:59:03.632Z,96470.78
2024-03-14T20:01:30.031Z,96470.81
2024-03-14T20:03:56.493Z,96464.84
2024-03-14T20:06:24.026Z,96466.56
2024-03-14T20:08:50.752Z,96464.03
2024-03-14T20:11:17.397Z,96461.44
2024-03-14T20:13:43.936Z,96462.28
2024-03-14T20:16:15.368Z,96465.66
2024-03-14T20:18:41.981Z,96463.03
2024-03-14T20:21:11.276Z,96456.16
2024-03-14T20:23:37.812Z,96447.63
2024-03-14T20:26:12.313Z,96451.81
2024-03-14T20:28:39.392Z,96446.72
2024-03-14T20:31:06.131Z,96445.88
2024-03-14T20:33:32.874Z,96445.03
2024-03-14T20:36:00.155Z,96444.19
2024-03-14T20:38:28.804Z,96453.56
2024-03-14T20:40:58.678Z,96443.28
2024-03-14T20:43:25.226Z,96438.19
2024-03-14T20:45:51.771Z,96441.59
2024-03-14T20:48:18.813Z,96444.94
2024-03-14T20:50:45.738Z,96450.84
2024-03-14T20:53:13.010Z,96445.69
2024-03-14T20:55:59.609Z,96447.41
2024-03-14T20:58:30.309Z,96442.25
2024-03-14T21:00:56.728Z,96441.41
2024-03-14T21:03:24.098Z,96438.00
2024-03-14T21:05:53.144Z,96443.09
2024-03-14T21:08:19.839Z,96438.78
2024-03-14T21:10:46.360Z,96432.00
2024-03-14T21:13:13.247Z,96436.22
2024-03-14T21:15:40.620Z,96437.91
2024-03-14T21:18:08.241Z,96437.03
2024-03-14T21:20:34.765Z,96443.03
2024-03-14T21:23:01.479Z,96441.34
2024-03-14T21:25:27.918Z,96436.22
2024-03-14T21:28:00.728Z,96437.06
2024-03-14T21:30:30.708Z,96434.50
2024-03-14T21:32:57.184Z,96435.38
2024-03-14T21:35:24.198Z,96443.84
2024-03-14T21:37:54.575Z,96438.72
2024-03-14T21:40:24.138Z,96442.94
2024-03-14T21:42:51.893Z,96442.09
2024-03-14T21:45:19.936Z,96440.41
2024-03-14T21:47:46.958Z,96445.47
2024-03-14T21:50:15.712Z,96451.34
2024-03-14T21:52:42.523Z,96452.13
2024-03-14T21:55:09.371Z,96447.78
2024-03-14T21:57:36.861Z,96457.94
2024-03-14T22:00:04.036Z,96455.38
2024-03-14T22:02:30.684Z,96456.22
2024-03-14T22:04:59.089Z,96457.97
2024-03-14T22:07:26.483Z,96452.06
2024-03-14T22:09:53.186Z,96444.41
2024-03-14T22:12:19.654Z,96446.88
2024-03-14T22:14:46.284Z,96450.22
2024-03-14T22:17:12.682Z,96449.31
2024-03-14T22:19:39.870Z,96451.84
2024-03-14T22:22:09.206Z,96451.81
2024-03-14T22:24:35.877Z,96448.38
2024-03-14T22:27:03.113Z,96451.78
2024-03-14T22:29:29.689Z,96453.44
2024-03-14T22:31:56.076Z,96450.88
2024-03-14T22:34:22.610Z,96444.06
2024-03-14T22:36:49.866Z,96452.50
2024-03-14T22:39:16.612Z,96443.13
2024-03-14T22:41:43.152Z,96447.38
2024-03-14T22:44:11.454Z,96437.19
2024-03-14T22:46:37.987Z,96439.69
2024-03-14T22:49:07.088Z,96435.38
2024-03-14T22:51:33.647Z,96431.94
2024-03-14T22:54:00.092Z,96440.34
2024-03-14T22:56:26.496Z,96445.53
2024-03-14T22:58:52.951Z,96442.19
2024-03-14T23:01:20.629Z,96437.09
2024-03-14T23:03:47.396Z,96443.91
2024-03-14T23:06:17.807Z,96435.41
2024-03-14T23:08:45.139Z,96445.63
2024-03-14T23:11:12.251Z,96435.38
2024-03-14T23:13:38.700Z,96433.63
2024-03-14T23:16:08.427Z,96437.00
2024-03-14T23:18:34.994Z,96433.63
2024-03-14T23:21:02.217Z,96426.84
2024-03-14T23:23:28.824Z,96433.66
2024-03-14T23:25:57.948Z,96434.56
2024-03-14T23:28:27.369Z,96437.97
2024-03-14T23:30:53.810Z,96435.38
2024-03-14T23:33:20.338Z,96443.00
2024-03-14T23:35:47.711Z,96442.13
2024-03-14T23:38:14.349Z,96439.59
2024-03-14T23:40:41.149Z,96445.53
2024-03-14T23:43:07.677Z,96437.03
2024-03-14T23:45:35.592Z,96441.22
2024-03-14T23:48:02.704Z,96438.66
2024-03-14T23:50:30.087Z,96436.13
2024-03-14T23:52:56.690Z,96446.25
2024-03-14T23:55:23.234Z,96430.09
2024-03-14T23:57:49.932Z,96435.13
